Somerset, Massachusetts
Current Conditions -  °F | °C
As of 5:53 PM on Wednesday 22 Oct 2014 (Local Time) from KEWB Reporting Station
Moderate Rain Moderate Rain  
Wind Chill: 54°   Ceiling: 700
Heat Index: 54°   Visibility: 6mi
Dew Point: 52°   Wind: 12mph
Humidity: 93%   Direction: 10°N
Pressure: 29.76"   Gusts: 20mph
Location:  41.75°N, 71.14°W
Report Text: KEWB 222153Z 01010G17KT 6SM RA BR OVC007 12/11 A2976 RMK AO2 PK WND 03026/2057 SLP076 P0003 T01220111
Loading
Personal Weather Stations






























Interactive Weather Map
Tropical Storm Tracking
New forecast layout! Learn more

10-Day Weather Forecast

Advertisements
Track Severe Weather on mobile